createdAt,value
2023-05-14T00:00:41.036Z,13.06
2023-05-14T00:03:07.847Z,13.01
2023-05-14T00:05:34.615Z,14.09
2023-05-14T00:08:01.115Z,15.92
2023-05-14T00:10:28.093Z,13.24
2023-05-14T00:12:54.585Z,12.59
2023-05-14T00:15:21.476Z,10.98
2023-05-14T00:17:48.036Z,11.95
2023-05-14T00:20:14.813Z,10.70
2023-05-14T00:22:41.470Z,10.34
2023-05-14T00:25:09.561Z,9.63
2023-05-14T00:27:37.734Z,9.67
2023-05-14T00:30:06.794Z,9.67
2023-05-14T00:32:34.111Z,10.27
2023-05-14T00:35:02.995Z,10.45
2023-05-14T00:37:30.828Z,9.52
2023-05-14T00:39:57.853Z,10.06
2023-05-14T00:42:24.633Z,9.49
2023-05-14T00:44:51.135Z,8.93
2023-05-14T00:47:18.247Z,8.93
2023-05-14T00:49:45.852Z,8.67
2023-05-14T00:52:12.833Z,8.41
2023-05-14T00:54:39.923Z,8.44
2023-05-14T00:57:06.927Z,8.93
2023-05-14T00:59:34.518Z,8.31
2023-05-14T01:02:01.850Z,8.13
2023-05-14T01:04:29.248Z,7.89
2023-05-14T01:07:17.074Z,8.08
2023-05-14T01:10:08.358Z,8.46
2023-05-14T01:12:57.785Z,7.97
2023-05-14T01:15:31.853Z,7.20
2023-05-14T01:18:07.458Z,8.06
2023-05-14T01:20:34.099Z,8.07
2023-05-14T01:23:00.941Z,7.69
2023-05-14T01:25:29.719Z,8.51
2023-05-14T01:28:17.859Z,10.47
2023-05-14T01:30:56.981Z,13.51
2023-05-14T01:33:29.285Z,16.90
2023-05-14T01:35:56.632Z,12.81
2023-05-14T01:38:27.472Z,16.70
2023-05-14T01:40:56.564Z,13.15
2023-05-14T01:43:23.901Z,11.01
2023-05-14T01:45:50.646Z,9.78
2023-05-14T01:48:17.635Z,11.86
2023-05-14T01:50:44.212Z,10.86
2023-05-14T01:53:10.644Z,13.25
2023-05-14T01:55:37.149Z,9.66
2023-05-14T01:58:03.612Z,9.66
2023-05-14T02:00:30.439Z,8.72
2023-05-14T02:02:56.926Z,9.27
2023-05-14T02:05:23.482Z,14.31
2023-05-14T02:07:50.066Z,18.36
2023-05-14T02:10:16.568Z,11.72
2023-05-14T02:12:43.157Z,9.49
2023-05-14T02:15:11.010Z,8.83
2023-05-14T02:17:37.539Z,9.22
2023-05-14T02:20:04.802Z,13.02
2023-05-14T02:22:31.274Z,17.42
2023-05-14T02:24:57.797Z,20.22
2023-05-14T02:27:24.364Z,18.48
2023-05-14T02:29:50.819Z,18.03
2023-05-14T02:32:17.366Z,17.69
2023-05-14T02:34:43.853Z,12.86
2023-05-14T02:37:10.326Z,13.61
2023-05-14T02:39:36.774Z,16.73
2023-05-14T02:42:03.397Z,15.13
2023-05-14T02:44:31.727Z,11.83
2023-05-14T02:46:58.254Z,10.68
2023-05-14T02:49:24.993Z,10.73
2023-05-14T02:51:51.605Z,10.50
2023-05-14T02:54:18.088Z,11.04
2023-05-14T02:56:44.576Z,8.93
2023-05-14T02:59:11.100Z,10.27
2023-05-14T03:01:38.049Z,7.77
2023-05-14T03:04:05.392Z,9.32
2023-05-14T03:06:31.940Z,7.79
2023-05-14T03:08:58.423Z,5.97
2023-05-14T03:11:25.602Z,6.42
2023-05-14T03:13:52.085Z,8.27
2023-05-14T03:16:18.958Z,7.48
2023-05-14T03:18:45.475Z,6.32
2023-05-14T03:21:12.516Z,5.87
2023-05-14T03:23:39.153Z,5.85
2023-05-14T03:26:06.248Z,6.72
2023-05-14T03:28:32.741Z,7.54
2023-05-14T03:30:59.298Z,8.12
2023-05-14T03:33:26.050Z,7.54
2023-05-14T03:35:52.557Z,5.41
2023-05-14T03:38:19.116Z,6.05
2023-05-14T03:40:46.217Z,5.39
2023-05-14T03:43:12.703Z,5.88
2023-05-14T03:45:39.871Z,6.17
2023-05-14T03:48:06.720Z,7.44
2023-05-14T03:50:33.514Z,6.38
2023-05-14T03:53:03.300Z,9.32
2023-05-14T03:55:29.930Z,9.30
2023-05-14T03:57:56.445Z,12.06
2023-05-14T04:00:23.179Z,15.90
2023-05-14T04:02:49.974Z,14.66
2023-05-14T04:05:16.944Z,8.04
2023-05-14T04:07:45.115Z,7.62
2023-05-14T04:10:12.853Z,6.26
2023-05-14T04:12:39.370Z,7.16
2023-05-14T04:15:06.824Z,10.90
2023-05-14T04:17:34.951Z,17.13
2023-05-14T04:20:01.710Z,12.46
2023-05-14T04:22:28.189Z,8.45
2023-05-14T04:24:54.747Z,7.12
2023-05-14T04:27:22.182Z,7.57
2023-05-14T04:29:50.467Z,7.23
2023-05-14T04:32:17.695Z,11.66
2023-05-14T04:34:44.417Z,9.19
2023-05-14T04:37:10.941Z,9.00
2023-05-14T04:39:38.339Z,11.45
2023-05-14T04:42:06.607Z,8.27
2023-05-14T04:44:36.161Z,8.14
2023-05-14T04:47:02.871Z,7.29
2023-05-14T04:49:30.761Z,8.02
2023-05-14T04:51:57.342Z,7.12
2023-05-14T04:54:23.959Z,8.78
2023-05-14T04:56:51.200Z,10.74
2023-05-14T04:59:17.862Z,9.22
2023-05-14T05:01:45.323Z,17.03
2023-05-14T05:04:12.221Z,14.08
2023-05-14T05:06:39.091Z,12.19
2023-05-14T05:09:05.578Z,13.83
2023-05-14T05:11:32.093Z,20.94
2023-05-14T05:13:58.524Z,20.71
2023-05-14T05:16:25.106Z,11.80
2023-05-14T05:18:51.826Z,6.30
2023-05-14T05:21:19.365Z,5.24
2023-05-14T05:23:45.898Z,5.03
2023-05-14T05:26:12.419Z,4.74
2023-05-14T05:28:38.951Z,4.23
2023-05-14T05:31:05.685Z,4.82
2023-05-14T05:33:32.276Z,5.16
2023-05-14T05:35:58.699Z,4.96
2023-05-14T05:38:25.296Z,4.98
2023-05-14T05:40:52.283Z,4.90
2023-05-14T05:43:18.744Z,10.54
2023-05-14T05:45:45.984Z,20.19
2023-05-14T05:48:12.781Z,20.69
2023-05-14T05:50:39.272Z,10.00
2023-05-14T05:53:05.727Z,5.78
2023-05-14T05:55:32.236Z,4.85
2023-05-14T05:57:58.840Z,6.74
2023-05-14T06:00:25.696Z,6.40
2023-05-14T06:02:52.446Z,5.84
2023-05-14T06:05:19.495Z,5.71
2023-05-14T06:07:46.057Z,7.78
2023-05-14T06:10:12.583Z,9.16
2023-05-14T06:12:39.155Z,12.26
2023-05-14T06:15:06.646Z,19.41
2023-05-14T06:17:33.204Z,13.08
2023-05-14T06:19:59.815Z,19.42
2023-05-14T06:22:26.412Z,41.72
2023-05-14T06:24:52.920Z,32.88
2023-05-14T06:27:19.335Z,17.66
2023-05-14T06:29:45.941Z,19.23
2023-05-14T06:32:15.422Z,9.66
2023-05-14T06:34:42.966Z,11.68
2023-05-14T06:37:10.491Z,8.42
2023-05-14T06:39:37.952Z,7.03
2023-05-14T06:42:05.698Z,10.53
2023-05-14T06:44:32.710Z,8.04
2023-05-14T06:46:59.341Z,5.38
2023-05-14T06:49:26.135Z,5.67
2023-05-14T06:51:53.740Z,5.96
2023-05-14T06:54:20.595Z,5.26
2023-05-14T06:56:47.133Z,5.51
2023-05-14T06:59:13.769Z,5.78
2023-05-14T07:01:40.925Z,5.90
2023-05-14T07:04:07.718Z,5.86
2023-05-14T07:06:34.784Z,5.64
2023-05-14T07:09:02.214Z,5.49
2023-05-14T07:11:28.902Z,5.35
2023-05-14T07:13:55.532Z,5.26
2023-05-14T07:16:22.162Z,6.82
2023-05-14T07:18:48.796Z,6.16
2023-05-14T07:21:15.425Z,5.92
2023-05-14T07:23:41.900Z,6.84
2023-05-14T07:26:08.932Z,6.58
2023-05-14T07:28:35.729Z,6.49
2023-05-14T07:31:08.587Z,7.10
2023-05-14T07:33:36.438Z,7.16
2023-05-14T07:36:03.031Z,7.25
2023-05-14T07:38:29.792Z,7.19
2023-05-14T07:40:56.426Z,7.55
2023-05-14T07:43:23.055Z,7.57
2023-05-14T07:45:49.700Z,7.57
2023-05-14T07:48:16.376Z,7.72
2023-05-14T07:50:43.069Z,7.80
2023-05-14T07:53:09.576Z,7.94
2023-05-14T07:55:36.472Z,8.74
2023-05-14T07:58:03.040Z,8.18
2023-05-14T08:00:29.615Z,8.00
2023-05-14T08:02:56.352Z,8.14
2023-05-14T08:05:23.012Z,8.42
2023-05-14T08:07:49.477Z,8.70
2023-05-14T08:10:16.023Z,9.13
2023-05-14T08:12:42.843Z,8.54
2023-05-14T08:15:10.149Z,8.44
2023-05-14T08:17:36.826Z,8.30
2023-05-14T08:20:06.403Z,8.06
2023-05-14T08:22:33.052Z,8.25
2023-05-14T08:25:00.925Z,8.44
2023-05-14T08:27:28.041Z,8.11
2023-05-14T08:29:54.488Z,8.21
2023-05-14T08:32:23.742Z,7.38
2023-05-14T08:34:51.584Z,7.57
2023-05-14T08:37:18.464Z,7.35
2023-05-14T08:39:45.139Z,7.49
2023-05-14T08:42:15.518Z,7.61
2023-05-14T08:44:53.217Z,6.96
2023-05-14T08:47:23.953Z,6.88
2023-05-14T08:50:04.519Z,6.53
2023-05-14T08:52:31.896Z,6.68
2023-05-14T08:55:04.167Z,6.63
2023-05-14T08:57:33.248Z,6.21
2023-05-14T09:00:00.322Z,6.19
2023-05-14T09:02:31.409Z,6.59
2023-05-14T09:05:02.464Z,5.63
2023-05-14T09:07:29.163Z,5.50
2023-05-14T09:09:55.840Z,5.70
2023-05-14T09:12:22.616Z,5.69
2023-05-14T09:14:50.962Z,5.20
2023-05-14T09:17:18.894Z,5.52
2023-05-14T09:19:49.257Z,5.33
2023-05-14T09:22:18.542Z,4.85
2023-05-14T09:24:45.751Z,4.70
2023-05-14T09:27:21.240Z,4.83
2023-05-14T09:29:48.474Z,4.96
2023-05-14T09:32:15.030Z,4.88
2023-05-14T09:34:42.150Z,5.37
2023-05-14T09:37:10.224Z,5.21
2023-05-14T09:39:38.334Z,4.80
2023-05-14T09:42:06.040Z,4.99
2023-05-14T09:44:32.713Z,4.81
2023-05-14T09:46:59.483Z,4.81
2023-05-14T09:49:26.050Z,4.87
2023-05-14T09:51:52.919Z,5.23
2023-05-14T09:54:19.600Z,4.89
2023-05-14T09:56:46.161Z,4.80
2023-05-14T09:59:13.159Z,4.79
2023-05-14T10:01:43.668Z,4.84
2023-05-14T10:04:12.415Z,4.88
2023-05-14T10:06:42.129Z,4.65
2023-05-14T10:09:16.235Z,4.74
2023-05-14T10:11:47.439Z,4.42
2023-05-14T10:14:26.695Z,4.67
2023-05-14T10:16:58.287Z,4.48
2023-05-14T10:19:26.376Z,4.65
2023-05-14T10:22:04.289Z,4.69
2023-05-14T10:24:32.935Z,4.59
2023-05-14T10:27:00.795Z,4.51
2023-05-14T10:29:37.799Z,4.66
2023-05-14T10:32:08.358Z,4.73
2023-05-14T10:34:38.181Z,4.32
2023-05-14T10:37:10.042Z,4.42
2023-05-14T10:39:54.734Z,4.51
2023-05-14T10:42:33.151Z,4.54
2023-05-14T10:45:07.188Z,4.45
2023-05-14T10:47:37.220Z,4.27
2023-05-14T10:50:07.936Z,3.88
2023-05-14T10:52:35.705Z,4.30
2023-05-14T10:55:07.676Z,4.03
2023-05-14T10:57:38.305Z,4.45
2023-05-14T11:00:08.796Z,4.14
2023-05-14T11:02:38.644Z,4.44
2023-05-14T11:05:11.367Z,4.01
2023-05-14T11:07:42.280Z,4.01
2023-05-14T11:10:20.143Z,4.11
2023-05-14T11:12:50.848Z,3.99
2023-05-14T11:15:21.907Z,4.11
2023-05-14T11:17:51.038Z,3.83
2023-05-14T11:20:19.589Z,3.63
2023-05-14T11:22:48.967Z,3.91
2023-05-14T11:25:15.909Z,3.86
2023-05-14T11:27:45.960Z,3.90
2023-05-14T11:30:13.458Z,3.67
2023-05-14T11:32:40.943Z,3.52
2023-05-14T11:35:08.244Z,3.40
2023-05-14T11:37:34.778Z,3.49
2023-05-14T11:40:01.787Z,3.34
2023-05-14T11:42:28.396Z,3.44
2023-05-14T11:44:55.097Z,3.11
2023-05-14T11:47:23.060Z,3.41
2023-05-14T11:49:49.888Z,3.26
2023-05-14T11:52:19.296Z,3.16
2023-05-14T11:54:46.589Z,3.25
2023-05-14T11:57:19.443Z,3.33
2023-05-14T11:59:47.935Z,3.37
2023-05-14T12:02:18.481Z,3.08
2023-05-14T12:04:52.240Z,3.39
2023-05-14T12:07:19.005Z,3.45
2023-05-14T12:09:49.662Z,3.68
2023-05-14T12:12:22.561Z,3.28
2023-05-14T12:14:50.959Z,3.42
2023-05-14T12:17:22.800Z,3.52
2023-05-14T12:19:53.703Z,3.18
2023-05-14T12:22:22.924Z,3.20
2023-05-14T12:24:56.776Z,3.08
2023-05-14T12:27:26.415Z,3.12
2023-05-14T12:30:20.072Z,3.08
2023-05-14T12:32:51.352Z,2.81
2023-05-14T12:35:18.530Z,2.91
2023-05-14T12:37:44.983Z,2.80
2023-05-14T12:40:11.946Z,3.13
2023-05-14T12:42:38.379Z,3.17
2023-05-14T12:45:07.746Z,3.20
2023-05-14T12:47:34.546Z,3.17
2023-05-14T12:50:01.294Z,2.85
2023-05-14T12:52:37.718Z,2.63
2023-05-14T12:55:07.225Z,3.00
2023-05-14T12:57:35.453Z,3.02
2023-05-14T13:00:07.051Z,2.80
2023-05-14T13:02:42.021Z,2.83
2023-05-14T13:05:11.526Z,2.75
2023-05-14T13:07:38.795Z,2.76
2023-05-14T13:10:06.670Z,2.62
2023-05-14T13:12:33.421Z,2.81
2023-05-14T13:14:59.891Z,2.58
2023-05-14T13:17:26.609Z,2.83
2023-05-14T13:19:53.171Z,2.73
2023-05-14T13:22:19.579Z,2.81
2023-05-14T13:24:46.349Z,2.94
2023-05-14T13:27:13.036Z,2.62
2023-05-14T13:29:39.535Z,2.67
2023-05-14T13:32:06.536Z,2.62
2023-05-14T13:34:32.996Z,2.93
2023-05-14T13:36:59.739Z,2.79
2023-05-14T13:39:27.208Z,2.93
2023-05-14T13:41:56.714Z,2.67
2023-05-14T13:44:23.729Z,2.79
2023-05-14T13:46:50.639Z,2.74
2023-05-14T13:49:17.333Z,2.78
2023-05-14T13:51:43.989Z,2.84
2023-05-14T13:54:10.478Z,2.86
2023-05-14T13:56:37.007Z,2.75
2023-05-14T13:59:03.985Z,2.51
2023-05-14T14:01:31.025Z,2.52
2023-05-14T14:03:57.789Z,2.38
2023-05-14T14:06:27.236Z,2.23
2023-05-14T14:08:54.049Z,2.29
2023-05-14T14:11:20.715Z,2.19
2023-05-14T14:13:47.122Z,2.41
2023-05-14T14:16:13.652Z,2.38
2023-05-14T14:18:40.260Z,2.42
2023-05-14T14:21:06.914Z,2.38
2023-05-14T14:23:33.342Z,2.25
2023-05-14T14:26:00.993Z,2.56
2023-05-14T14:28:27.432Z,2.41
2023-05-14T14:30:54.058Z,2.39
2023-05-14T14:33:20.621Z,2.42
2023-05-14T14:35:47.200Z,2.35
2023-05-14T14:38:14.038Z,2.46
2023-05-14T14:40:40.681Z,2.38
2023-05-14T14:43:07.196Z,2.44
2023-05-14T14:45:33.774Z,2.67
2023-05-14T14:48:37.937Z,2.71
2023-05-14T14:51:07.877Z,2.84
2023-05-14T14:53:36.945Z,2.54
2023-05-14T14:56:04.363Z,2.58
2023-05-14T14:58:31.149Z,2.42
2023-05-14T15:00:58.783Z,2.50
2023-05-14T15:03:25.943Z,2.74
2023-05-14T15:05:53.624Z,2.77
2023-05-14T15:08:27.454Z,2.84
2023-05-14T15:10:56.254Z,2.87
2023-05-14T15:13:23.237Z,3.03
2023-05-14T15:15:51.706Z,2.87
2023-05-14T15:18:18.315Z,2.83
2023-05-14T15:20:44.872Z,2.75
2023-05-14T15:23:11.659Z,2.65
2023-05-14T15:25:38.418Z,2.73
2023-05-14T15:28:07.370Z,2.83
2023-05-14T15:30:34.066Z,2.86
2023-05-14T15:33:00.911Z,2.94
2023-05-14T15:35:27.873Z,3.18
2023-05-14T15:37:57.447Z,3.30
2023-05-14T15:40:24.179Z,3.46
2023-05-14T15:42:50.874Z,3.84
2023-05-14T15:45:17.464Z,3.39
2023-05-14T15:47:44.995Z,3.58
2023-05-14T15:50:12.249Z,3.37
2023-05-14T15:52:39.756Z,3.14
2023-05-14T15:55:06.990Z,3.34
2023-05-14T15:57:34.471Z,3.51
2023-05-14T16:00:01.444Z,3.56
2023-05-14T16:02:30.350Z,3.50
2023-05-14T16:04:57.082Z,3.81
2023-05-14T16:07:23.538Z,3.86
2023-05-14T16:09:49.946Z,3.81
2023-05-14T16:12:16.485Z,3.67
2023-05-14T16:14:45.046Z,3.95
2023-05-14T16:17:11.769Z,3.94
2023-05-14T16:19:39.718Z,4.02
2023-05-14T16:22:06.501Z,4.16
2023-05-14T16:24:33.291Z,3.76
2023-05-14T16:27:00.647Z,3.79
2023-05-14T16:29:27.782Z,3.73
2023-05-14T16:31:54.933Z,4.23
2023-05-14T16:34:21.537Z,3.89
2023-05-14T16:36:48.208Z,4.01
2023-05-14T16:39:14.747Z,4.04
2023-05-14T16:41:41.345Z,4.08
2023-05-14T16:44:07.850Z,4.47
2023-05-14T16:46:34.589Z,4.39
2023-05-14T16:49:02.430Z,4.60
2023-05-14T16:51:29.015Z,4.41
2023-05-14T16:53:55.846Z,4.18
2023-05-14T16:56:22.523Z,4.07
2023-05-14T16:58:50.098Z,4.34
2023-05-14T17:01:16.568Z,4.28
2023-05-14T17:03:44.495Z,4.44
2023-05-14T17:06:11.302Z,3.73
2023-05-14T17:08:37.757Z,3.82
2023-05-14T17:11:05.897Z,3.86
2023-05-14T17:13:33.024Z,4.07
2023-05-14T17:16:00.835Z,4.14
2023-05-14T17:18:28.138Z,4.09
2023-05-14T17:20:54.805Z,3.86
2023-05-14T17:23:21.403Z,3.92
2023-05-14T17:25:47.950Z,4.20
2023-05-14T17:28:14.771Z,3.99
2023-05-14T17:30:41.350Z,3.89
2023-05-14T17:33:07.884Z,4.08
2023-05-14T17:35:36.211Z,3.75
2023-05-14T17:38:03.342Z,3.90
2023-05-14T17:40:29.841Z,4.03
2023-05-14T17:42:56.324Z,3.61
2023-05-14T17:45:22.994Z,3.71
2023-05-14T17:47:51.187Z,3.62
2023-05-14T17:50:18.654Z,3.82
2023-05-14T17:52:46.101Z,3.71
2023-05-14T17:55:12.710Z,3.59
2023-05-14T17:57:39.339Z,3.47
2023-05-14T18:00:07.531Z,3.45
2023-05-14T18:02:34.193Z,3.23
2023-05-14T18:05:02.610Z,3.39
2023-05-14T18:07:30.816Z,3.29
2023-05-14T18:09:58.135Z,3.46
2023-05-14T18:12:26.596Z,3.32
2023-05-14T18:14:53.875Z,3.59
2023-05-14T18:17:20.698Z,3.34
2023-05-14T18:19:47.540Z,3.65
2023-05-14T18:22:14.173Z,3.88
2023-05-14T18:24:40.759Z,4.04
2023-05-14T18:27:07.329Z,3.37
2023-05-14T18:29:33.832Z,3.48
2023-05-14T18:32:00.327Z,3.47
2023-05-14T18:34:26.831Z,3.45
2023-05-14T18:36:54.517Z,3.47
2023-05-14T18:39:21.002Z,3.50
2023-05-14T18:41:47.577Z,3.06
2023-05-14T18:44:14.143Z,3.26
2023-05-14T18:46:43.326Z,3.38
2023-05-14T18:49:09.858Z,3.18
2023-05-14T18:51:36.313Z,3.34
2023-05-14T18:54:03.182Z,3.62
2023-05-14T18:56:29.655Z,3.62
2023-05-14T18:58:56.136Z,3.70
2023-05-14T19:01:25.299Z,3.52
2023-05-14T19:03:53.015Z,3.37
2023-05-14T19:06:20.179Z,3.44
2023-05-14T19:08:46.705Z,3.61
2023-05-14T19:11:13.203Z,3.66
2023-05-14T19:13:39.729Z,3.29
2023-05-14T19:16:06.888Z,3.59
2023-05-14T19:18:34.312Z,3.66
2023-05-14T19:21:00.876Z,3.63
2023-05-14T19:23:27.310Z,3.36
2023-05-14T19:25:54.296Z,3.68
2023-05-14T19:28:21.251Z,3.39
2023-05-14T19:30:47.808Z,3.81
2023-05-14T19:33:14.459Z,3.47
2023-05-14T19:35:40.940Z,3.38
2023-05-14T19:38:09.034Z,3.56
2023-05-14T19:40:35.547Z,3.41
2023-05-14T19:43:02.236Z,3.74
2023-05-14T19:45:28.796Z,3.48
2023-05-14T19:47:55.466Z,3.39
2023-05-14T19:50:22.016Z,3.36
2023-05-14T19:52:48.780Z,3.47
2023-05-14T19:55:15.238Z,3.64
2023-05-14T19:57:41.752Z,3.75
2023-05-14T20:00:09.170Z,3.39
2023-05-14T20:02:35.750Z,3.56
2023-05-14T20:05:02.294Z,3.76
2023-05-14T20:07:29.369Z,3.65
2023-05-14T20:09:55.882Z,3.70
2023-05-14T20:12:22.332Z,3.55
2023-05-14T20:14:48.783Z,3.70
2023-05-14T20:17:15.477Z,3.68
2023-05-14T20:19:43.633Z,3.67
2023-05-14T20:22:10.265Z,3.63
2023-05-14T20:24:36.755Z,3.81
2023-05-14T20:27:03.254Z,3.99
2023-05-14T20:29:29.912Z,3.68
2023-05-14T20:31:56.813Z,3.85
2023-05-14T20:34:23.298Z,3.93
2023-05-14T20:36:50.188Z,3.76
2023-05-14T20:39:16.691Z,4.06
2023-05-14T20:41:45.398Z,3.98
2023-05-14T20:44:11.818Z,4.09
2023-05-14T20:46:38.774Z,4.06
2023-05-14T20:49:05.387Z,4.10
2023-05-14T20:51:32.584Z,4.25
2023-05-14T20:53:59.020Z,3.95
2023-05-14T20:56:26.406Z,3.89
2023-05-14T20:58:52.970Z,3.71
2023-05-14T21:01:19.687Z,4.04
2023-05-14T21:03:46.377Z,3.73
2023-05-14T21:06:13.007Z,3.82
2023-05-14T21:08:40.353Z,3.47
2023-05-14T21:11:06.801Z,3.69
2023-05-14T21:13:33.314Z,3.54
2023-05-14T21:16:00.400Z,3.50
2023-05-14T21:18:30.579Z,3.46
2023-05-14T21:20:57.041Z,3.56
2023-05-14T21:23:23.580Z,3.83
2023-05-14T21:25:50.351Z,3.52
2023-05-14T21:28:16.808Z,3.90
2023-05-14T21:30:43.323Z,3.52
2023-05-14T21:33:09.836Z,3.53
2023-05-14T21:35:36.421Z,3.53
2023-05-14T21:38:03.014Z,3.81
2023-05-14T21:40:29.475Z,3.87
2023-05-14T21:42:55.978Z,3.73
2023-05-14T21:45:23.570Z,3.79
2023-05-14T21:47:50.594Z,4.08
2023-05-14T21:50:17.189Z,3.99
2023-05-14T21:52:43.614Z,4.24
2023-05-14T21:55:10.345Z,3.97
2023-05-14T21:57:36.915Z,4.17
2023-05-14T22:00:10.488Z,4.24
2023-05-14T22:02:37.046Z,4.27
2023-05-14T22:05:03.834Z,3.79
2023-05-14T22:07:32.803Z,3.69
2023-05-14T22:09:59.774Z,3.97
2023-05-14T22:12:26.701Z,4.03
2023-05-14T22:14:53.235Z,4.00
2023-05-14T22:17:19.739Z,3.81
2023-05-14T22:19:46.332Z,3.92
2023-05-14T22:22:12.745Z,4.06
2023-05-14T22:24:39.166Z,3.88
2023-05-14T22:27:06.209Z,3.64
2023-05-14T22:29:32.708Z,3.90
2023-05-14T22:31:59.439Z,3.91
2023-05-14T22:34:26.171Z,3.92
2023-05-14T22:36:52.848Z,3.86
2023-05-14T22:39:19.271Z,3.87
2023-05-14T22:41:45.968Z,3.74
2023-05-14T22:44:12.479Z,4.04
2023-05-14T22:46:38.933Z,3.81
2023-05-14T22:49:05.807Z,3.91
2023-05-14T22:51:32.683Z,3.94
2023-05-14T22:53:59.209Z,3.91
2023-05-14T22:56:25.729Z,4.01
2023-05-14T22:58:52.201Z,3.79
2023-05-14T23:01:18.749Z,4.22
2023-05-14T23:03:45.390Z,3.93
2023-05-14T23:06:14.372Z,4.40
2023-05-14T23:08:40.963Z,4.37
2023-05-14T23:11:07.713Z,4.56
2023-05-14T23:13:34.303Z,4.53
2023-05-14T23:16:01.687Z,4.51
2023-05-14T23:18:28.306Z,4.79
2023-05-14T23:20:55.079Z,4.64
2023-05-14T23:23:21.679Z,4.65
2023-05-14T23:25:50.150Z,4.79
2023-05-14T23:28:17.816Z,4.46
2023-05-14T23:30:45.567Z,4.48
2023-05-14T23:33:12.227Z,5.13
2023-05-14T23:35:40.173Z,5.07
2023-05-14T23:38:07.332Z,5.00
2023-05-14T23:40:34.503Z,5.08
2023-05-14T23:43:01.029Z,5.18
2023-05-14T23:45:28.181Z,4.85
2023-05-14T23:47:58.259Z,4.88
2023-05-14T23:50:25.703Z,4.71
2023-05-14T23:52:54.612Z,5.09
2023-05-14T23:55:22.843Z,5.26
2023-05-14T23:57:49.827Z,5.69
